sensor_id;sensor_type;location;lat;lon;timestamp;pressure;altitude;pressure_sealevel;temperature;humidity
71772;BME280;59606;52.138;5.424;2022-10-28T00:01:10;101911.31;;;14.50;92.69
71772;BME280;59606;52.138;5.424;2022-10-28T00:03:39;101911.31;;;14.50;93.28
71772;BME280;59606;52.138;5.424;2022-10-28T00:06:08;101911.41;;;14.48;93.51
71772;BME280;59606;52.138;5.424;2022-10-28T00:08:35;101913.03;;;14.51;93.96
71772;BME280;59606;52.138;5.424;2022-10-28T00:13:34;101917.34;;;14.52;94.26
71772;BME280;59606;52.138;5.424;2022-10-28T00:16:18;101918.13;;;14.54;94.46
71772;BME280;59606;52.138;5.424;2022-10-28T00:18:46;101917.19;;;14.55;94.51
71772;BME280;59606;52.138;5.424;2022-10-28T00:21:21;101911.88;;;14.56;94.46
71772;BME280;59606;52.138;5.424;2022-10-28T00:23:48;101906.69;;;14.55;94.46
71772;BME280;59606;52.138;5.424;2022-10-28T00:26:15;101897.91;;;14.56;94.52
71772;BME280;59606;52.138;5.424;2022-10-28T00:28:44;101893.50;;;14.56;94.68
71772;BME280;59606;52.138;5.424;2022-10-28T00:31:13;101895.13;;;14.59;94.82
71772;BME280;59606;52.138;5.424;2022-10-28T00:33:40;101889.00;;;14.58;94.74
71772;BME280;59606;52.138;5.424;2022-10-28T00:36:23;101889.00;;;14.58;94.80
71772;BME280;59606;52.138;5.424;2022-10-28T00:38:52;101888.09;;;14.59;94.93
71772;BME280;59606;52.138;5.424;2022-10-28T00:41:24;101892.50;;;14.59;94.94
71772;BME280;59606;52.138;5.424;2022-10-28T00:43:56;101892.50;;;14.59;95.31
71772;BME280;59606;52.138;5.424;2022-10-28T00:46:42;101889.88;;;14.59;95.18
71772;BME280;59606;52.138;5.424;2022-10-28T00:49:18;101888.94;;;14.60;95.20
71772;BME280;59606;52.138;5.424;2022-10-28T00:51:48;101888.09;;;14.59;94.91
71772;BME280;59606;52.138;5.424;2022-10-28T00:54:16;101883.78;;;14.58;94.99
71772;BME280;59606;52.138;5.424;2022-10-28T00:56:47;101874.31;;;14.56;95.27
71772;BME280;59606;52.138;5.424;2022-10-28T00:59:27;101867.19;;;14.58;95.41
71772;BME280;59606;52.138;5.424;2022-10-28T01:01:54;101865.50;;;14.57;95.31
71772;BME280;59606;52.138;5.424;2022-10-28T01:04:21;101868.13;;;14.57;95.12
71772;BME280;59606;52.138;5.424;2022-10-28T01:06:49;101862.13;;;14.55;95.24
71772;BME280;59606;52.138;5.424;2022-10-28T01:09:16;101867.47;;;14.53;95.06
71772;BME280;59606;52.138;5.424;2022-10-28T01:11:59;101853.50;;;14.53;95.22
71772;BME280;59606;52.138;5.424;2022-10-28T01:17:28;101862.28;;;14.52;95.23
71772;BME280;59606;52.138;5.424;2022-10-28T01:20:24;101860.59;;;14.51;95.40
71772;BME280;59606;52.138;5.424;2022-10-28T01:31:25;101854.66;;;14.47;95.38
71772;BME280;59606;52.138;5.424;2022-10-28T01:36:52;101854.66;;;14.47;95.57
71772;BME280;59606;52.138;5.424;2022-10-28T01:39:23;101854.75;;;14.46;95.45
71772;BME280;59606;52.138;5.424;2022-10-28T01:44:46;101851.34;;;14.44;95.18
71772;BME280;59606;52.138;5.424;2022-10-28T01:50:13;101842.81;;;14.40;95.35
71772;BME280;59606;52.138;5.424;2022-10-28T01:52:42;101848.16;;;14.38;95.39
71772;BME280;59606;52.138;5.424;2022-10-28T01:55:19;101842.19;;;14.35;95.21
71772;BME280;59606;52.138;5.424;2022-10-28T01:57:48;101840.63;;;14.32;95.31
71772;BME280;59606;52.138;5.424;2022-10-28T02:00:16;101835.53;;;14.29;95.15
71772;BME280;59606;52.138;5.424;2022-10-28T02:02:44;101829.50;;;14.27;95.45
71772;BME280;59606;52.138;5.424;2022-10-28T02:05:47;101825.22;;;14.26;95.17
71772;BME280;59606;52.138;5.424;2022-10-28T02:11:09;101831.56;;;14.22;95.34
71772;BME280;59606;52.138;5.424;2022-10-28T02:13:47;101825.53;;;14.20;95.46
71772;BME280;59606;52.138;5.424;2022-10-28T02:17:00;101817.84;;;14.17;95.32
71772;BME280;59606;52.138;5.424;2022-10-28T02:20:08;101818.09;;;14.12;95.30
71772;BME280;59606;52.138;5.424;2022-10-28T02:22:50;101825.19;;;14.10;95.25
71772;BME280;59606;52.138;5.424;2022-10-28T02:25:24;101815.72;;;14.08;95.65
71772;BME280;59606;52.138;5.424;2022-10-28T02:28:07;101815.81;;;14.06;95.10
71772;BME280;59606;52.138;5.424;2022-10-28T02:30:54;101810.72;;;14.03;95.32
71772;BME280;59606;52.138;5.424;2022-10-28T02:33:28;101820.44;;;14.01;95.24
71772;BME280;59606;52.138;5.424;2022-10-28T02:35:59;101813.66;;;13.97;95.36
71772;BME280;59606;52.138;5.424;2022-10-28T02:38:42;101820.59;;;13.98;95.34
71772;BME280;59606;52.138;5.424;2022-10-28T02:41:45;101811.16;;;13.96;95.49
71772;BME280;59606;52.138;5.424;2022-10-28T02:44:16;101809.44;;;13.95;95.58
71772;BME280;59606;52.138;5.424;2022-10-28T02:46:46;101808.59;;;13.94;95.84
71772;BME280;59606;52.138;5.424;2022-10-28T02:49:14;101802.59;;;13.92;95.68
71772;BME280;59606;52.138;5.424;2022-10-28T02:51:48;101800.84;;;13.93;95.62
71772;BME280;59606;52.138;5.424;2022-10-28T02:54:36;101804.44;;;13.90;96.10
71772;BME280;59606;52.138;5.424;2022-10-28T02:57:06;101807.16;;;13.88;95.70
71772;BME280;59606;52.138;5.424;2022-10-28T02:59:35;101804.78;;;13.84;95.98
71772;BME280;59606;52.138;5.424;2022-10-28T03:02:02;101806.66;;;13.82;95.71
71772;BME280;59606;52.138;5.424;2022-10-28T03:04:29;101810.25;;;13.79;95.25
71772;BME280;59606;52.138;5.424;2022-10-28T03:06:55;101806.88;;;13.77;95.57
71772;BME280;59606;52.138;5.424;2022-10-28T03:09:21;101804.41;;;13.74;95.51
71772;BME280;59606;52.138;5.424;2022-10-28T03:11:48;101798.50;;;13.71;95.26
71772;BME280;59606;52.138;5.424;2022-10-28T03:14:14;101802.19;;;13.66;95.26
71772;BME280;59606;52.138;5.424;2022-10-28T03:16:41;101795.34;;;13.64;95.12
71772;BME280;59606;52.138;5.424;2022-10-28T03:19:08;101800.69;;;13.62;95.40
71772;BME280;59606;52.138;5.424;2022-10-28T03:21:39;101795.75;;;13.56;94.98
71772;BME280;59606;52.138;5.424;2022-10-28T03:24:06;101793.28;;;13.53;95.38
71772;BME280;59606;52.138;5.424;2022-10-28T03:26:32;101797.84;;;13.50;94.96
71772;BME280;59606;52.138;5.424;2022-10-28T03:28:59;101802.41;;;13.46;94.96
71772;BME280;59606;52.138;5.424;2022-10-28T03:31:25;101802.56;;;13.43;94.65
71772;BME280;59606;52.138;5.424;2022-10-28T03:33:51;101806.25;;;13.39;94.69
71772;BME280;59606;52.138;5.424;2022-10-28T03:36:18;101800.25;;;13.37;94.50
71772;BME280;59606;52.138;5.424;2022-10-28T03:38:44;101793.31;;;13.36;94.82
71772;BME280;59606;52.138;5.424;2022-10-28T03:41:11;101798.03;;;13.29;94.62
71772;BME280;59606;52.138;5.424;2022-10-28T03:43:37;101795.47;;;13.28;94.05
71772;BME280;59606;52.138;5.424;2022-10-28T03:46:04;101788.66;;;13.24;94.21
71772;BME280;59606;52.138;5.424;2022-10-28T03:48:30;101780.13;;;13.20;94.08
71772;BME280;59606;52.138;5.424;2022-10-28T03:50:57;101778.59;;;13.16;94.09
71772;BME280;59606;52.138;5.424;2022-10-28T03:53:23;101774.16;;;13.18;94.22
71772;BME280;59606;52.138;5.424;2022-10-28T03:55:55;101772.38;;;13.18;94.54
71772;BME280;59606;52.138;5.424;2022-10-28T03:58:22;101768.97;;;13.16;94.59
71772;BME280;59606;52.138;5.424;2022-10-28T04:00:49;101761.22;;;13.15;94.51
71772;BME280;59606;52.138;5.424;2022-10-28T04:03:17;101762.97;;;13.14;94.17
71772;BME280;59606;52.138;5.424;2022-10-28T04:05:44;101762.22;;;13.12;94.94
71772;BME280;59606;52.138;5.424;2022-10-28T04:08:11;101763.69;;;13.18;95.72
71772;BME280;59606;52.138;5.424;2022-10-28T04:10:37;101771.34;;;13.21;95.95
71772;BME280;59606;52.138;5.424;2022-10-28T04:13:07;101776.56;;;13.21;95.69
71772;BME280;59606;52.138;5.424;2022-10-28T04:15:34;101769.66;;;13.20;95.61
71772;BME280;59606;52.138;5.424;2022-10-28T04:18:01;101768.91;;;13.18;95.15
71772;BME280;59606;52.138;5.424;2022-10-28T04:20:28;101772.59;;;13.14;94.92
71772;BME280;59606;52.138;5.424;2022-10-28T04:22:55;101776.38;;;13.08;94.71
71772;BME280;59606;52.138;5.424;2022-10-28T04:25:24;101772.19;;;13.04;94.55
71772;BME280;59606;52.138;5.424;2022-10-28T04:27:51;101778.47;;;13.02;94.74
71772;BME280;59606;52.138;5.424;2022-10-28T04:30:17;101781.22;;;12.98;94.42
71772;BME280;59606;52.138;5.424;2022-10-28T04:32:44;101781.38;;;12.95;94.27
71772;BME280;59606;52.138;5.424;2022-10-28T04:35:11;101789.28;;;12.94;94.49
71772;BME280;59606;52.138;5.424;2022-10-28T04:37:39;101780.75;;;12.90;94.05
71772;BME280;59606;52.138;5.424;2022-10-28T04:40:06;101779.06;;;12.89;93.91
71772;BME280;59606;52.138;5.424;2022-10-28T04:42:33;101780.03;;;12.87;94.32
71772;BME280;59606;52.138;5.424;2022-10-28T04:44:59;101775.66;;;12.87;94.68
71772;BME280;59606;52.138;5.424;2022-10-28T04:47:26;101781.75;;;12.88;94.53
71772;BME280;59606;52.138;5.424;2022-10-28T04:49:52;101773.81;;;12.89;94.67
71772;BME280;59606;52.138;5.424;2022-10-28T04:52:19;101774.59;;;12.91;95.39
71772;BME280;59606;52.138;5.424;2022-10-28T04:54:45;101777.81;;;12.96;95.21
71772;BME280;59606;52.138;5.424;2022-10-28T04:57:12;101769.97;;;12.96;95.69
71772;BME280;59606;52.138;5.424;2022-10-28T04:59:38;101765.53;;;12.98;95.66
71772;BME280;59606;52.138;5.424;2022-10-28T05:02:05;101769.03;;;12.97;95.57
71772;BME280;59606;52.138;5.424;2022-10-28T05:04:31;101758.66;;;12.96;95.88
71772;BME280;59606;52.138;5.424;2022-10-28T05:06:58;101763.91;;;12.96;95.50
71772;BME280;59606;52.138;5.424;2022-10-28T05:09:24;101766.63;;;12.94;95.72
71772;BME280;59606;52.138;5.424;2022-10-28T05:11:51;101764.00;;;12.94;95.59
71772;BME280;59606;52.138;5.424;2022-10-28T05:14:17;101767.50;;;12.93;96.03
71772;BME280;59606;52.138;5.424;2022-10-28T05:16:43;101771.75;;;12.96;95.94
71772;BME280;59606;52.138;5.424;2022-10-28T05:19:10;101768.28;;;12.95;95.88
71772;BME280;59606;52.138;5.424;2022-10-28T05:21:36;101758.66;;;12.96;96.01
71772;BME280;59606;52.138;5.424;2022-10-28T05:24:03;101748.31;;;12.94;95.96
71772;BME280;59606;52.138;5.424;2022-10-28T05:26:29;101746.53;;;12.95;96.05
71772;BME280;59606;52.138;5.424;2022-10-28T05:28:56;101742.03;;;12.97;96.52
71772;BME280;59606;52.138;5.424;2022-10-28T05:31:22;101754.22;;;12.98;96.39
71772;BME280;59606;52.138;5.424;2022-10-28T05:33:49;101760.28;;;12.98;96.71
71772;BME280;59606;52.138;5.424;2022-10-28T05:36:15;101751.66;;;12.96;96.60
71772;BME280;59606;52.138;5.424;2022-10-28T05:38:42;101749.00;;;12.98;96.91
71772;BME280;59606;52.138;5.424;2022-10-28T05:41:10;101744.50;;;13.00;97.14
71772;BME280;59606;52.138;5.424;2022-10-28T05:43:37;101754.97;;;13.00;96.76
71772;BME280;59606;52.138;5.424;2022-10-28T05:46:04;101743.66;;;13.00;97.06
71772;BME280;59606;52.138;5.424;2022-10-28T05:48:30;101745.34;;;13.01;97.08
71772;BME280;59606;52.138;5.424;2022-10-28T05:50:57;101751.38;;;13.03;97.32
71772;BME280;59606;52.138;5.424;2022-10-28T05:53:23;101746.97;;;13.03;96.99
71772;BME280;59606;52.138;5.424;2022-10-28T05:55:50;101740.81;;;13.04;96.92
71772;BME280;59606;52.138;5.424;2022-10-28T05:58:16;101744.31;;;13.05;97.15
71772;BME280;59606;52.138;5.424;2022-10-28T06:00:42;101745.13;;;13.05;97.23
71772;BME280;59606;52.138;5.424;2022-10-28T06:03:10;101744.31;;;13.05;97.05
71772;BME280;59606;52.138;5.424;2022-10-28T06:05:42;101756.44;;;13.06;97.54
71772;BME280;59606;52.138;5.424;2022-10-28T06:08:11;101759.06;;;13.06;97.26
71772;BME280;59606;52.138;5.424;2022-10-28T06:10:38;101755.50;;;13.07;97.15
71772;BME280;59606;52.138;5.424;2022-10-28T06:13:05;101762.59;;;13.05;97.25
71772;BME280;59606;52.138;5.424;2022-10-28T06:15:32;101751.38;;;13.03;97.34
71772;BME280;59606;52.138;5.424;2022-10-28T06:17:58;101754.97;;;13.00;96.67
71772;BME280;59606;52.138;5.424;2022-10-28T06:20:25;101765.44;;;13.00;97.14
71772;BME280;59606;52.138;5.424;2022-10-28T06:22:53;101761.13;;;12.99;97.09
71772;BME280;59606;52.138;5.424;2022-10-28T06:25:24;101754.22;;;12.98;97.07
71772;BME280;59606;52.138;5.424;2022-10-28T06:27:55;101752.50;;;12.97;96.48
71772;BME280;59606;52.138;5.424;2022-10-28T06:30:23;101766.63;;;12.94;96.55
71772;BME280;59606;52.138;5.424;2022-10-28T06:32:50;101766.63;;;12.94;96.71
71772;BME280;59606;52.138;5.424;2022-10-28T06:35:17;101766.53;;;12.96;96.98
71772;BME280;59606;52.138;5.424;2022-10-28T06:37:43;101768.19;;;12.97;97.39
71772;BME280;59606;52.138;5.424;2022-10-28T06:40:10;101766.44;;;12.97;97.05
71772;BME280;59606;52.138;5.424;2022-10-28T06:42:36;101772.44;;;13.00;97.36
71772;BME280;59606;52.138;5.424;2022-10-28T06:45:03;101768.00;;;13.02;97.52
71772;BME280;59606;52.138;5.424;2022-10-28T06:47:30;101766.97;;;13.04;97.46
71772;BME280;59606;52.138;5.424;2022-10-28T06:49:56;101767.59;;;13.09;97.37
71772;BME280;59606;52.138;5.424;2022-10-28T06:52:23;101767.44;;;13.12;97.51
71772;BME280;59606;52.138;5.424;2022-10-28T06:54:49;101783.91;;;13.14;97.74
71772;BME280;59606;52.138;5.424;2022-10-28T06:57:15;101787.22;;;13.18;97.28
71772;BME280;59606;52.138;5.424;2022-10-28T06:59:42;101781.91;;;13.19;97.45
71772;BME280;59606;52.138;5.424;2022-10-28T07:02:09;101775.75;;;13.20;97.64
71772;BME280;59606;52.138;5.424;2022-10-28T07:04:37;101771.22;;;13.24;97.08
71772;BME280;59606;52.138;5.424;2022-10-28T07:07:03;101771.06;;;13.27;97.45
71772;BME280;59606;52.138;5.424;2022-10-28T07:09:30;101763.91;;;13.31;97.57
71772;BME280;59606;52.138;5.424;2022-10-28T07:11:56;101776.00;;;13.33;97.51
71772;BME280;59606;52.138;5.424;2022-10-28T07:14:29;101770.59;;;13.36;96.94
71772;BME280;59606;52.138;5.424;2022-10-28T07:16:57;101770.44;;;13.39;96.79
71772;BME280;59606;52.138;5.424;2022-10-28T07:19:23;101765.06;;;13.42;97.20
71772;BME280;59606;52.138;5.424;2022-10-28T07:21:50;101769.22;;;13.47;96.91
71772;BME280;59606;52.138;5.424;2022-10-28T07:24:16;101762.03;;;13.50;96.98
71772;BME280;59606;52.138;5.424;2022-10-28T07:26:43;101773.97;;;13.56;96.79
71772;BME280;59606;52.138;5.424;2022-10-28T07:29:09;101774.50;;;13.62;97.18
71772;BME280;59606;52.138;5.424;2022-10-28T07:31:36;101783.88;;;13.66;97.09
71772;BME280;59606;52.138;5.424;2022-10-28T07:34:02;101779.31;;;13.70;96.68
71772;BME280;59606;52.138;5.424;2022-10-28T07:36:29;101778.22;;;13.74;96.94
71772;BME280;59606;52.138;5.424;2022-10-28T07:38:55;101781.47;;;13.79;96.33
71772;BME280;59606;52.138;5.424;2022-10-28T07:41:22;101782.91;;;13.85;96.88
71772;BME280;59606;52.138;5.424;2022-10-28T07:43:49;101774.69;;;13.91;96.73
71772;BME280;59606;52.138;5.424;2022-10-28T07:46:16;101783.91;;;13.98;96.52
71772;BME280;59606;52.138;5.424;2022-10-28T07:48:43;101783.59;;;14.04;96.14
71772;BME280;59606;52.138;5.424;2022-10-28T07:51:12;101783.94;;;14.14;96.21
71772;BME280;59606;52.138;5.424;2022-10-28T07:53:40;101785.38;;;14.20;96.29
71772;BME280;59606;52.138;5.424;2022-10-28T07:56:08;101790.97;;;14.29;96.13
71772;BME280;59606;52.138;5.424;2022-10-28T07:58:35;101793.94;;;14.39;95.51
71772;BME280;59606;52.138;5.424;2022-10-28T08:01:06;101809.00;;;14.51;95.41
71772;BME280;59606;52.138;5.424;2022-10-28T08:03:34;101810.09;;;14.63;94.61
71772;BME280;59606;52.138;5.424;2022-10-28T08:06:07;101804.50;;;14.69;94.52
71772;BME280;59606;52.138;5.424;2022-10-28T08:08:34;101801.44;;;14.77;94.06
71772;BME280;59606;52.138;5.424;2022-10-28T08:11:20;101801.16;;;14.81;94.01
71772;BME280;59606;52.138;5.424;2022-10-28T08:13:52;101802.59;;;14.87;93.78
71772;BME280;59606;52.138;5.424;2022-10-28T08:16:18;101790.94;;;14.93;93.77
71772;BME280;59606;52.138;5.424;2022-10-28T08:18:45;101803.09;;;14.94;93.50
71772;BME280;59606;52.138;5.424;2022-10-28T08:21:12;101799.19;;;15.01;93.44
71772;BME280;59606;52.138;5.424;2022-10-28T08:23:39;101798.72;;;15.08;92.77
71772;BME280;59606;52.138;5.424;2022-10-28T08:26:06;101792.28;;;15.14;92.95
71772;BME280;59606;52.138;5.424;2022-10-28T08:28:33;101790.91;;;15.23;92.71
71772;BME280;59606;52.138;5.424;2022-10-28T08:31:01;101796.25;;;15.36;92.57
71772;BME280;59606;52.138;5.424;2022-10-28T08:33:37;101804.84;;;15.53;92.04
71772;BME280;59606;52.138;5.424;2022-10-28T08:36:05;101801.28;;;15.69;91.40
71772;BME280;59606;52.138;5.424;2022-10-28T08:38:32;101799.53;;;15.84;90.72
71772;BME280;59606;52.138;5.424;2022-10-28T08:46:27;101798.28;;;16.03;89.54
71772;BME280;59606;52.138;5.424;2022-10-28T08:49:00;101792.84;;;16.07;89.17
71772;BME280;59606;52.138;5.424;2022-10-28T08:51:39;101808.31;;;16.11;90.05
71772;BME280;59606;52.138;5.424;2022-10-28T08:54:14;101805.69;;;16.11;89.63
71772;BME280;59606;52.138;5.424;2022-10-28T08:56:45;101797.69;;;16.13;89.28
71772;BME280;59606;52.138;5.424;2022-10-28T08:59:18;101787.84;;;16.16;88.44
71772;BME280;59606;52.138;5.424;2022-10-28T09:01:48;101782.94;;;16.24;88.46
71772;BME280;59606;52.138;5.424;2022-10-28T09:04:38;101789.50;;;16.32;88.29
71772;BME280;59606;52.138;5.424;2022-10-28T09:07:12;101785.63;;;16.37;87.78
71772;BME280;59606;52.138;5.424;2022-10-28T09:09:40;101788.81;;;16.42;87.72
71772;BME280;59606;52.138;5.424;2022-10-28T09:12:10;101784.75;;;16.51;87.55
71772;BME280;59606;52.138;5.424;2022-10-28T09:17:43;101793.34;;;16.67;87.69
71772;BME280;59606;52.138;5.424;2022-10-28T09:22:58;101791.69;;;16.79;86.85
71772;BME280;59606;52.138;5.424;2022-10-28T09:28:35;101783.22;;;16.88;86.26
71772;BME280;59606;52.138;5.424;2022-10-28T09:31:31;101789.75;;;16.95;85.95
71772;BME280;59606;52.138;5.424;2022-10-28T09:34:10;101777.03;;;17.02;86.13
71772;BME280;59606;52.138;5.424;2022-10-28T09:36:44;101782.09;;;17.05;85.57
71772;BME280;59606;52.138;5.424;2022-10-28T09:39:17;101782.72;;;17.09;85.26
71772;BME280;59606;52.138;5.424;2022-10-28T09:41:52;101796.53;;;17.12;85.37
71772;BME280;59606;52.138;5.424;2022-10-28T09:44:40;101796.53;;;17.12;85.31
71772;BME280;59606;52.138;5.424;2022-10-28T09:47:14;101790.41;;;17.12;84.68
71772;BME280;59606;52.138;5.424;2022-10-28T09:49:42;101781.56;;;17.13;85.34
71772;BME280;59606;52.138;5.424;2022-10-28T09:52:22;101790.22;;;17.15;84.97
71772;BME280;59606;52.138;5.424;2022-10-28T09:54:51;101791.81;;;17.17;85.09
71772;BME280;59606;52.138;5.424;2022-10-28T09:57:19;101785.56;;;17.18;84.97
71772;BME280;59606;52.138;5.424;2022-10-28T09:59:47;101784.31;;;17.24;85.07
71772;BME280;59606;52.138;5.424;2022-10-28T10:02:24;101784.44;;;17.35;85.08
71772;BME280;59606;52.138;5.424;2022-10-28T10:04:53;101789.16;;;17.43;84.35
71772;BME280;59606;52.138;5.424;2022-10-28T10:07:38;101789.09;;;17.57;84.57
71772;BME280;59606;52.138;5.424;2022-10-28T10:10:14;101788.75;;;17.62;83.71
71772;BME280;59606;52.138;5.424;2022-10-28T10:12:41;101789.25;;;17.67;83.57
71772;BME280;59606;52.138;5.424;2022-10-28T10:15:13;101794.31;;;17.70;83.61
71772;BME280;59606;52.138;5.424;2022-10-28T10:17:44;101790.63;;;17.73;83.77
71772;BME280;59606;52.138;5.424;2022-10-28T10:20:13;101783.16;;;17.79;83.58
71772;BME280;59606;52.138;5.424;2022-10-28T10:22:45;101788.31;;;17.94;83.74
71772;BME280;59606;52.138;5.424;2022-10-28T10:28:00;101768.44;;;18.13;82.69
71772;BME280;59606;52.138;5.424;2022-10-28T10:30:33;101762.44;;;18.11;82.43
71772;BME280;59606;52.138;5.424;2022-10-28T10:33:01;101772.78;;;18.14;82.79
71772;BME280;59606;52.138;5.424;2022-10-28T10:35:30;101768.00;;;18.20;82.36
71772;BME280;59606;52.138;5.424;2022-10-28T10:38:00;101767.34;;;18.29;81.89
71772;BME280;59606;52.138;5.424;2022-10-28T10:40:30;101774.38;;;18.41;81.96
71772;BME280;59606;52.138;5.424;2022-10-28T10:46:16;101759.69;;;18.61;81.41
71772;BME280;59606;52.138;5.424;2022-10-28T10:48:43;101747.59;;;18.70;80.67
71772;BME280;59606;52.138;5.424;2022-10-28T10:51:30;101744.00;;;18.71;80.81
71772;BME280;59606;52.138;5.424;2022-10-28T10:53:57;101745.75;;;18.72;80.58
71772;BME280;59606;52.138;5.424;2022-10-28T10:56:28;101751.41;;;18.78;81.00
71772;BME280;59606;52.138;5.424;2022-10-28T10:58:59;101754.41;;;18.85;80.08
71772;BME280;59606;52.138;5.424;2022-10-28T11:01:34;101768.09;;;18.90;79.67
71772;BME280;59606;52.138;5.424;2022-10-28T11:04:07;101765.84;;;18.97;79.43
71772;BME280;59606;52.138;5.424;2022-10-28T11:06:42;101772.56;;;19.01;79.72
71772;BME280;59606;52.138;5.424;2022-10-28T11:11:48;101760.94;;;19.03;79.44
71772;BME280;59606;52.138;5.424;2022-10-28T11:14:24;101754.47;;;19.07;79.15
71772;BME280;59606;52.138;5.424;2022-10-28T11:16:54;101750.66;;;19.12;79.09
71772;BME280;59606;52.138;5.424;2022-10-28T11:19:26;101756.53;;;19.15;79.20
71772;BME280;59606;52.138;5.424;2022-10-28T11:33:45;101761.81;;;19.26;79.05
71772;BME280;59606;52.138;5.424;2022-10-28T11:36:32;101738.66;;;19.30;79.20
71772;BME280;59606;52.138;5.424;2022-10-28T11:39:19;101751.41;;;19.36;78.95
71772;BME280;59606;52.138;5.424;2022-10-28T11:41:55;101760.75;;;19.40;78.92
71772;BME280;59606;52.138;5.424;2022-10-28T11:47:33;101762.47;;;19.52;78.61
71772;BME280;59606;52.138;5.424;2022-10-28T11:50:16;101774.97;;;19.62;78.11
71772;BME280;59606;52.138;5.424;2022-10-28T11:55:31;101762.84;;;19.70;77.78
71772;BME280;59606;52.138;5.424;2022-10-28T12:12:32;101767.63;;;19.99;76.16
71772;BME280;59606;52.138;5.424;2022-10-28T12:20:33;101768.59;;;20.09;74.56
71772;BME280;59606;52.138;5.424;2022-10-28T12:23:11;101766.63;;;20.11;74.32
71772;BME280;59606;52.138;5.424;2022-10-28T12:25:41;101763.16;;;20.11;74.01
71772;BME280;59606;52.138;5.424;2022-10-28T12:28:27;101760.41;;;20.12;73.65
71772;BME280;59606;52.138;5.424;2022-10-28T12:30:56;101771.44;;;20.17;72.84
71772;BME280;59606;52.138;5.424;2022-10-28T12:33:37;101770.47;;;20.18;72.95
71772;BME280;59606;52.138;5.424;2022-10-28T12:42:13;101770.47;;;20.18;72.09
71772;BME280;59606;52.138;5.424;2022-10-28T12:44:43;101771.81;;;20.13;71.55
71772;BME280;59606;52.138;5.424;2022-10-28T12:47:27;101771.22;;;20.09;71.73
71772;BME280;59606;52.138;5.424;2022-10-28T12:50:16;101778.81;;;20.02;72.13
71772;BME280;59606;52.138;5.424;2022-10-28T12:55:40;101776.53;;;19.98;71.69
71772;BME280;59606;52.138;5.424;2022-10-28T13:01:00;101795.88;;;19.98;73.05
71772;BME280;59606;52.138;5.424;2022-10-28T13:03:30;101800.47;;;19.96;72.17
71772;BME280;59606;52.138;5.424;2022-10-28T13:06:06;101801.44;;;19.95;72.58
71772;BME280;59606;52.138;5.424;2022-10-28T13:14:29;101821.84;;;19.93;72.56
71772;BME280;59606;52.138;5.424;2022-10-28T13:17:34;101812.34;;;19.91;72.92
71772;BME280;59606;52.138;5.424;2022-10-28T13:20:44;101821.38;;;19.88;72.86
71772;BME280;59606;52.138;5.424;2022-10-28T13:23:49;101817.03;;;19.87;72.38
71772;BME280;59606;52.138;5.424;2022-10-28T13:26:36;101814.63;;;19.84;73.17
71772;BME280;59606;52.138;5.424;2022-10-28T13:29:07;101829.66;;;19.84;72.58
71772;BME280;59606;52.138;5.424;2022-10-28T13:31:44;101815.63;;;19.83;72.77
71772;BME280;59606;52.138;5.424;2022-10-28T13:34:13;101831.34;;;19.85;72.86
71772;BME280;59606;52.138;5.424;2022-10-28T13:36:55;101825.34;;;19.83;73.47
71772;BME280;59606;52.138;5.424;2022-10-28T13:44:47;101834.59;;;19.88;73.06
71772;BME280;59606;52.138;5.424;2022-10-28T13:52:41;101835.47;;;19.89;73.38
71772;BME280;59606;52.138;5.424;2022-10-28T13:57:47;101826.94;;;19.85;73.26
71772;BME280;59606;52.138;5.424;2022-10-28T14:03:05;101844.47;;;19.86;73.70
71772;BME280;59606;52.138;5.424;2022-10-28T14:08:18;101858.38;;;19.88;73.90
71772;BME280;59606;52.138;5.424;2022-10-28T14:13:21;101859.50;;;19.86;73.83
71772;BME280;59606;52.138;5.424;2022-10-28T14:15:48;101873.78;;;19.83;73.95
71772;BME280;59606;52.138;5.424;2022-10-28T14:21:02;101879.19;;;19.82;73.51
71772;BME280;59606;52.138;5.424;2022-10-28T14:26:02;101883.63;;;19.81;73.40
71772;BME280;59606;52.138;5.424;2022-10-28T14:33:45;101858.66;;;19.85;74.06
71772;BME280;59606;52.138;5.424;2022-10-28T14:41:34;101872.59;;;19.76;73.86
71772;BME280;59606;52.138;5.424;2022-10-28T14:50:19;101889.28;;;19.65;75.02
71772;BME280;59606;52.138;5.424;2022-10-28T14:52:48;101892.97;;;19.63;75.02
71772;BME280;59606;52.138;5.424;2022-10-28T14:55:25;101908.22;;;19.59;75.00
71772;BME280;59606;52.138;5.424;2022-10-28T14:57:53;101904.00;;;19.57;75.14
71772;BME280;59606;52.138;5.424;2022-10-28T15:00:22;101911.19;;;19.54;75.53
71772;BME280;59606;52.138;5.424;2022-10-28T15:02:51;101909.66;;;19.52;75.59
71772;BME280;59606;52.138;5.424;2022-10-28T15:05:21;101899.31;;;19.49;75.90
71772;BME280;59606;52.138;5.424;2022-10-28T15:07:50;101894.13;;;19.47;75.96
71772;BME280;59606;52.138;5.424;2022-10-28T15:10:20;101909.13;;;19.47;76.15
71772;BME280;59606;52.138;5.424;2022-10-28T15:12:48;101905.75;;;19.45;76.68
71772;BME280;59606;52.138;5.424;2022-10-28T15:15:23;101904.31;;;19.41;76.43
71772;BME280;59606;52.138;5.424;2022-10-28T15:17:50;101902.03;;;19.36;76.87
71772;BME280;59606;52.138;5.424;2022-10-28T15:20:29;101902.25;;;19.33;77.07
71772;BME280;59606;52.138;5.424;2022-10-28T15:23:31;101905.84;;;19.32;77.47
71772;BME280;59606;52.138;5.424;2022-10-28T15:26:12;101917.50;;;19.29;77.35
71772;BME280;59606;52.138;5.424;2022-10-28T15:28:39;101921.19;;;19.27;77.75
71772;BME280;59606;52.138;5.424;2022-10-28T15:31:06;101932.00;;;19.24;77.89
71772;BME280;59606;52.138;5.424;2022-10-28T15:33:41;101930.41;;;19.21;77.97
71772;BME280;59606;52.138;5.424;2022-10-28T15:38:45;101937.94;;;19.15;78.74
71772;BME280;59606;52.138;5.424;2022-10-28T15:41:38;101946.97;;;19.12;78.54